sensor_id;sensor_type;location;lat;lon;timestamp;pressure;altitude;pressure_sealevel;temperature;humidity
58373;BME280;44177;43.356;27.672;2023-04-25T00:01:38;97530.00;;;9.11;100.00
58373;BME280;44177;43.356;27.672;2023-04-25T00:04:04;97530.16;;;9.03;100.00
58373;BME280;44177;43.356;27.672;2023-04-25T00:06:34;97539.91;;;9.04;100.00
58373;BME280;44177;43.356;27.672;2023-04-25T00:09:02;97514.88;;;8.98;100.00
58373;BME280;44177;43.356;27.672;2023-04-25T00:11:28;97515.06;;;9.05;100.00
58373;BME280;44177;43.356;27.672;2023-04-25T00:13:56;97520.09;;;9.03;100.00
58373;BME280;44177;43.356;27.672;2023-04-25T00:16:22;97513.06;;;9.02;100.00
58373;BME280;44177;43.356;27.672;2023-04-25T00:18:49;97504.72;;;8.95;100.00
58373;BME280;44177;43.356;27.672;2023-04-25T00:21:18;97497.97;;;8.89;100.00
58373;BME280;44177;43.356;27.672;2023-04-25T00:23:45;97499.44;;;8.86;100.00
58373;BME280;44177;43.356;27.672;2023-04-25T00:26:11;97498.94;;;8.80;100.00
58373;BME280;44177;43.356;27.672;2023-04-25T00:28:37;97485.88;;;8.70;100.00
58373;BME280;44177;43.356;27.672;2023-04-25T00:31:03;97479.38;;;8.59;100.00
58373;BME280;44177;43.356;27.672;2023-04-25T00:33:29;97483.31;;;8.61;100.00
58373;BME280;44177;43.356;27.672;2023-04-25T00:35:55;97490.00;;;8.64;100.00
58373;BME280;44177;43.356;27.672;2023-04-25T00:38:21;97490.25;;;8.59;100.00
58373;BME280;44177;43.356;27.672;2023-04-25T00:40:47;97487.69;;;8.66;100.00
58373;BME280;44177;43.356;27.672;2023-04-25T00:43:12;97485.69;;;8.63;100.00
58373;BME280;44177;43.356;27.672;2023-04-25T00:45:39;97493.50;;;8.64;100.00
58373;BME280;44177;43.356;27.672;2023-04-25T00:48:04;97495.78;;;8.62;100.00
58373;BME280;44177;43.356;27.672;2023-04-25T00:50:30;97487.72;;;8.50;100.00
58373;BME280;44177;43.356;27.672;2023-04-25T00:52:57;97490.88;;;8.52;100.00
58373;BME280;44177;43.356;27.672;2023-04-25T00:55:23;97494.09;;;8.58;100.00
58373;BME280;44177;43.356;27.672;2023-04-25T00:57:50;97500.25;;;8.55;100.00
58373;BME280;44177;43.356;27.672;2023-04-25T01:00:16;97491.38;;;8.58;100.00
58373;BME280;44177;43.356;27.672;2023-04-25T01:02:43;97472.25;;;8.54;100.00
58373;BME280;44177;43.356;27.672;2023-04-25T01:05:10;97462.63;;;8.57;100.00
58373;BME280;44177;43.356;27.672;2023-04-25T01:07:36;97483.50;;;8.68;100.00
58373;BME280;44177;43.356;27.672;2023-04-25T01:10:02;97468.84;;;8.73;100.00
58373;BME280;44177;43.356;27.672;2023-04-25T01:12:28;97464.91;;;8.71;100.00
58373;BME280;44177;43.356;27.672;2023-04-25T01:14:53;97466.47;;;8.72;100.00
58373;BME280;44177;43.356;27.672;2023-04-25T01:17:19;97466.38;;;8.84;100.00
58373;BME280;44177;43.356;27.672;2023-04-25T01:19:45;97460.53;;;8.82;100.00
58373;BME280;44177;43.356;27.672;2023-04-25T01:22:14;97469.00;;;8.80;100.00
58373;BME280;44177;43.356;27.672;2023-04-25T01:24:40;97455.97;;;8.70;100.00
58373;BME280;44177;43.356;27.672;2023-04-25T01:27:06;97451.66;;;8.69;100.00
58373;BME280;44177;43.356;27.672;2023-04-25T01:29:32;97448.22;;;8.72;100.00
58373;BME280;44177;43.356;27.672;2023-04-25T01:31:58;97445.34;;;8.81;100.00
58373;BME280;44177;43.356;27.672;2023-04-25T01:34:24;97450.41;;;8.82;100.00
58373;BME280;44177;43.356;27.672;2023-04-25T01:36:51;97434.75;;;8.76;100.00
58373;BME280;44177;43.356;27.672;2023-04-25T01:39:17;97431.03;;;8.68;100.00
58373;BME280;44177;43.356;27.672;2023-04-25T01:41:43;97439.81;;;8.77;100.00
58373;BME280;44177;43.356;27.672;2023-04-25T01:44:09;97431.50;;;8.70;100.00
58373;BME280;44177;43.356;27.672;2023-04-25T01:46:35;97437.09;;;8.77;100.00
58373;BME280;44177;43.356;27.672;2023-04-25T01:49:01;97431.41;;;8.66;100.00
58373;BME280;44177;43.356;27.672;2023-04-25T01:51:26;97433.31;;;8.66;100.00
58373;BME280;44177;43.356;27.672;2023-04-25T01:53:52;97441.47;;;8.66;100.00
58373;BME280;44177;43.356;27.672;2023-04-25T01:56:18;97440.78;;;8.69;100.00
58373;BME280;44177;43.356;27.672;2023-04-25T01:58:45;97431.41;;;8.66;100.00
58373;BME280;44177;43.356;27.672;2023-04-25T02:01:11;97433.00;;;8.67;100.00
58373;BME280;44177;43.356;27.672;2023-04-25T02:03:36;97427.47;;;8.64;100.00
58373;BME280;44177;43.356;27.672;2023-04-25T02:06:02;97412.53;;;8.58;100.00
58373;BME280;44177;43.356;27.672;2023-04-25T02:08:27;97418.16;;;8.65;100.00
58373;BME280;44177;43.356;27.672;2023-04-25T02:10:53;97415.88;;;8.67;100.00
58373;BME280;44177;43.356;27.672;2023-04-25T02:13:18;97411.94;;;8.64;100.00
58373;BME280;44177;43.356;27.672;2023-04-25T02:15:44;97416.59;;;8.64;100.00
58373;BME280;44177;43.356;27.672;2023-04-25T02:18:09;97404.84;;;8.60;100.00
58373;BME280;44177;43.356;27.672;2023-04-25T02:20:35;97405.28;;;8.62;100.00
58373;BME280;44177;43.356;27.672;2023-04-25T02:23:02;97400.53;;;8.59;100.00
58373;BME280;44177;43.356;27.672;2023-04-25T02:25:27;97398.94;;;8.58;100.00
58373;BME280;44177;43.356;27.672;2023-04-25T02:27:53;97397.38;;;8.57;100.00
58373;BME280;44177;43.356;27.672;2023-04-25T02:30:19;97383.84;;;8.60;100.00
58373;BME280;44177;43.356;27.672;2023-04-25T02:32:44;97386.94;;;8.59;100.00
58373;BME280;44177;43.356;27.672;2023-04-25T02:35:10;97390.63;;;8.50;100.00
58373;BME280;44177;43.356;27.672;2023-04-25T02:37:37;97379.50;;;8.56;100.00
58373;BME280;44177;43.356;27.672;2023-04-25T02:40:03;97384.22;;;8.59;100.00
58373;BME280;44177;43.356;27.672;2023-04-25T02:42:30;97389.22;;;8.57;100.00
58373;BME280;44177;43.356;27.672;2023-04-25T02:44:55;97393.09;;;8.56;100.00
58373;BME280;44177;43.356;27.672;2023-04-25T02:47:21;97386.09;;;8.55;100.00
58373;BME280;44177;43.356;27.672;2023-04-25T02:49:46;97386.69;;;8.48;100.00
58373;BME280;44177;43.356;27.672;2023-04-25T02:52:12;97384.84;;;8.52;100.00
58373;BME280;44177;43.356;27.672;2023-04-25T02:54:39;97381.59;;;8.46;100.00
58373;BME280;44177;43.356;27.672;2023-04-25T02:57:05;97376.31;;;8.37;100.00
58373;BME280;44177;43.356;27.672;2023-04-25T02:59:30;97376.41;;;8.41;100.00
58373;BME280;44177;43.356;27.672;2023-04-25T03:01:56;97369.06;;;8.42;100.00
58373;BME280;44177;43.356;27.672;2023-04-25T03:04:21;97372.91;;;8.41;100.00
58373;BME280;44177;43.356;27.672;2023-04-25T03:06:50;97379.47;;;8.40;100.00
58373;BME280;44177;43.356;27.672;2023-04-25T03:09:15;97380.47;;;8.47;100.00
58373;BME280;44177;43.356;27.672;2023-04-25T03:11:41;97374.56;;;8.45;100.00
58373;BME280;44177;43.356;27.672;2023-04-25T03:14:06;97371.03;;;8.45;100.00
58373;BME280;44177;43.356;27.672;2023-04-25T03:16:32;97360.91;;;8.42;100.00
58373;BME280;44177;43.356;27.672;2023-04-25T03:18:57;97368.88;;;8.50;100.00
58373;BME280;44177;43.356;27.672;2023-04-25T03:21:23;97365.03;;;8.51;100.00
58373;BME280;44177;43.356;27.672;2023-04-25T03:23:48;97363.44;;;8.50;100.00
58373;BME280;44177;43.356;27.672;2023-04-25T03:26:14;97358.25;;;8.45;100.00
58373;BME280;44177;43.356;27.672;2023-04-25T03:28:39;97355.66;;;8.49;100.00
58373;BME280;44177;43.356;27.672;2023-04-25T03:31:05;97358.47;;;8.36;100.00
58373;BME280;44177;43.356;27.672;2023-04-25T03:33:31;97358.78;;;8.35;100.00
58373;BME280;44177;43.356;27.672;2023-04-25T03:35:56;97366.34;;;8.42;100.00
58373;BME280;44177;43.356;27.672;2023-04-25T03:38:22;97355.28;;;8.34;100.00
58373;BME280;44177;43.356;27.672;2023-04-25T03:40:48;97362.72;;;8.37;100.00
58373;BME280;44177;43.356;27.672;2023-04-25T03:43:13;97347.22;;;8.38;100.00
58373;BME280;44177;43.356;27.672;2023-04-25T03:45:39;97356.44;;;8.33;100.00
58373;BME280;44177;43.356;27.672;2023-04-25T03:48:04;97357.22;;;8.34;100.00
58373;BME280;44177;43.356;27.672;2023-04-25T03:50:30;97345.91;;;8.32;100.00
58373;BME280;44177;43.356;27.672;2023-04-25T03:52:55;97346.09;;;8.39;100.00
58373;BME280;44177;43.356;27.672;2023-04-25T03:55:21;97350.81;;;8.42;100.00
58373;BME280;44177;43.356;27.672;2023-04-25T03:57:46;97347.06;;;8.47;100.00
58373;BME280;44177;43.356;27.672;2023-04-25T04:00:12;97353.88;;;8.57;100.00
58373;BME280;44177;43.356;27.672;2023-04-25T04:02:38;97352.31;;;8.56;100.00
58373;BME280;44177;43.356;27.672;2023-04-25T04:05:04;97349.59;;;8.56;100.00
58373;BME280;44177;43.356;27.672;2023-04-25T04:07:31;97365.34;;;8.66;100.00
58373;BME280;44177;43.356;27.672;2023-04-25T04:09:58;97348.34;;;8.69;100.00
58373;BME280;44177;43.356;27.672;2023-04-25T04:12:23;97353.16;;;8.76;100.00
58373;BME280;44177;43.356;27.672;2023-04-25T04:14:49;97358.03;;;8.86;100.00
58373;BME280;44177;43.356;27.672;2023-04-25T04:17:15;97352.81;;;8.97;100.00
58373;BME280;44177;43.356;27.672;2023-04-25T04:19:41;97344.31;;;8.98;100.00
58373;BME280;44177;43.356;27.672;2023-04-25T04:22:06;97344.97;;;9.11;100.00
58373;BME280;44177;43.356;27.672;2023-04-25T04:24:32;97346.03;;;9.26;100.00
58373;BME280;44177;43.356;27.672;2023-04-25T04:26:58;97346.47;;;9.28;100.00
58373;BME280;44177;43.356;27.672;2023-04-25T04:29:24;97342.00;;;9.40;100.00
58373;BME280;44177;43.356;27.672;2023-04-25T04:31:51;97334.34;;;9.45;100.00
58373;BME280;44177;43.356;27.672;2023-04-25T04:34:17;97330.53;;;9.50;100.00
58373;BME280;44177;43.356;27.672;2023-04-25T04:36:46;97330.72;;;9.61;100.00
58373;BME280;44177;43.356;27.672;2023-04-25T04:39:12;97341.88;;;9.75;99.55
58373;BME280;44177;43.356;27.672;2023-04-25T04:41:38;97339.84;;;9.92;99.17
58373;BME280;44177;43.356;27.672;2023-04-25T04:44:04;97319.34;;;9.98;98.00
58373;BME280;44177;43.356;27.672;2023-04-25T04:46:32;97339.19;;;10.22;96.71
58373;BME280;44177;43.356;27.672;2023-04-25T04:49:04;97332.25;;;10.28;94.09
58373;BME280;44177;43.356;27.672;2023-04-25T04:51:29;97332.94;;;10.45;91.97
58373;BME280;44177;43.356;27.672;2023-04-25T04:53:56;97334.63;;;10.53;90.92
58373;BME280;44177;43.356;27.672;2023-04-25T04:56:24;97331.09;;;10.52;87.87
58373;BME280;44177;43.356;27.672;2023-04-25T04:58:50;97326.53;;;10.60;87.12
58373;BME280;44177;43.356;27.672;2023-04-25T05:01:16;97334.09;;;10.74;87.03
58373;BME280;44177;43.356;27.672;2023-04-25T05:03:41;97335.47;;;10.87;86.31
58373;BME280;44177;43.356;27.672;2023-04-25T05:06:07;97332.84;;;10.95;86.03
58373;BME280;44177;43.356;27.672;2023-04-25T05:08:34;97326.38;;;11.06;85.66
58373;BME280;44177;43.356;27.672;2023-04-25T05:10:59;97322.66;;;11.22;83.94
58373;BME280;44177;43.356;27.672;2023-04-25T05:13:25;97329.34;;;11.28;83.30
58373;BME280;44177;43.356;27.672;2023-04-25T05:15:50;97323.69;;;11.44;83.36
58373;BME280;44177;43.356;27.672;2023-04-25T05:18:16;97330.50;;;11.61;80.62
58373;BME280;44177;43.356;27.672;2023-04-25T05:20:41;97326.75;;;11.77;79.13
58373;BME280;44177;43.356;27.672;2023-04-25T05:23:06;97317.88;;;11.87;76.52
58373;BME280;44177;43.356;27.672;2023-04-25T05:25:32;97331.41;;;12.14;76.68
58373;BME280;44177;43.356;27.672;2023-04-25T05:27:58;97319.38;;;12.26;75.84
58373;BME280;44177;43.356;27.672;2023-04-25T05:30:23;97325.88;;;12.62;73.86
58373;BME280;44177;43.356;27.672;2023-04-25T05:32:49;97322.09;;;12.85;73.30
58373;BME280;44177;43.356;27.672;2023-04-25T05:35:15;97306.13;;;12.94;73.00
58373;BME280;44177;43.356;27.672;2023-04-25T05:37:41;97314.41;;;13.13;71.73
58373;BME280;44177;43.356;27.672;2023-04-25T05:40:07;97313.69;;;13.23;67.17
58373;BME280;44177;43.356;27.672;2023-04-25T05:42:32;97302.72;;;13.19;68.92
58373;BME280;44177;43.356;27.672;2023-04-25T05:44:58;97304.66;;;13.22;66.00
58373;BME280;44177;43.356;27.672;2023-04-25T05:47:23;97311.44;;;13.50;66.88
58373;BME280;44177;43.356;27.672;2023-04-25T05:49:49;97318.50;;;13.58;66.24
58373;BME280;44177;43.356;27.672;2023-04-25T05:52:14;97302.75;;;13.34;65.70
58373;BME280;44177;43.356;27.672;2023-04-25T05:54:40;97304.38;;;13.49;67.91
58373;BME280;44177;43.356;27.672;2023-04-25T05:57:06;97303.50;;;13.31;65.19
58373;BME280;44177;43.356;27.672;2023-04-25T05:59:31;97304.66;;;13.22;67.15
58373;BME280;44177;43.356;27.672;2023-04-25T06:01:57;97304.22;;;13.06;66.00
58373;BME280;44177;43.356;27.672;2023-04-25T06:04:22;97311.34;;;13.21;65.19
58373;BME280;44177;43.356;27.672;2023-04-25T06:06:48;97304.00;;;13.58;65.36
58373;BME280;44177;43.356;27.672;2023-04-25T06:09:13;97296.22;;;13.74;65.17
58373;BME280;44177;43.356;27.672;2023-04-25T06:11:39;97281.75;;;14.03;63.27
58373;BME280;44177;43.356;27.672;2023-04-25T06:14:05;97281.34;;;14.23;62.21
58373;BME280;44177;43.356;27.672;2023-04-25T06:16:31;97292.34;;;14.04;63.06
58373;BME280;44177;43.356;27.672;2023-04-25T06:18:56;97290.38;;;14.05;65.49
58373;BME280;44177;43.356;27.672;2023-04-25T06:21:22;97282.91;;;14.02;64.49
58373;BME280;44177;43.356;27.672;2023-04-25T06:23:47;97288.78;;;14.04;65.38
58373;BME280;44177;43.356;27.672;2023-04-25T06:26:13;97287.63;;;14.01;66.02
58373;BME280;44177;43.356;27.672;2023-04-25T06:28:38;97277.44;;;13.91;68.35
58373;BME280;44177;43.356;27.672;2023-04-25T06:31:04;97277.81;;;13.86;69.16
58373;BME280;44177;43.356;27.672;2023-04-25T06:33:29;97285.22;;;13.56;67.73
58373;BME280;44177;43.356;27.672;2023-04-25T06:35:55;97261.75;;;13.66;68.10
58373;BME280;44177;43.356;27.672;2023-04-25T06:38:20;97275.88;;;14.15;67.07
58373;BME280;44177;43.356;27.672;2023-04-25T06:40:46;97279.34;;;14.41;65.54
58373;BME280;44177;43.356;27.672;2023-04-25T06:43:11;97258.97;;;14.49;66.02
58373;BME280;44177;43.356;27.672;2023-04-25T06:45:37;97266.75;;;14.80;64.10
58373;BME280;44177;43.356;27.672;2023-04-25T06:48:02;97260.34;;;15.15;64.48
58373;BME280;44177;43.356;27.672;2023-04-25T06:50:28;97251.16;;;15.44;62.47
58373;BME280;44177;43.356;27.672;2023-04-25T06:52:53;97268.31;;;15.66;59.76
58373;BME280;44177;43.356;27.672;2023-04-25T06:55:19;97259.38;;;16.04;59.34
58373;BME280;44177;43.356;27.672;2023-04-25T06:57:44;97261.91;;;16.33;59.61
58373;BME280;44177;43.356;27.672;2023-04-25T07:00:10;97253.97;;;16.77;58.87
58373;BME280;44177;43.356;27.672;2023-04-25T07:02:36;97262.56;;;17.17;57.37
58373;BME280;44177;43.356;27.672;2023-04-25T07:05:02;97263.16;;;17.59;55.76
58373;BME280;44177;43.356;27.672;2023-04-25T07:07:29;97254.44;;;17.88;55.77
58373;BME280;44177;43.356;27.672;2023-04-25T07:09:55;97254.22;;;18.06;54.89
58373;BME280;44177;43.356;27.672;2023-04-25T07:12:21;97259.38;;;18.28;55.30
58373;BME280;44177;43.356;27.672;2023-04-25T07:14:47;97253.16;;;17.96;55.16
58373;BME280;44177;43.356;27.672;2023-04-25T07:17:12;97261.69;;;18.29;55.85
58373;BME280;44177;43.356;27.672;2023-04-25T07:19:38;97261.31;;;18.51;54.86
58373;BME280;44177;43.356;27.672;2023-04-25T07:22:05;97257.25;;;18.36;53.59
58373;BME280;44177;43.356;27.672;2023-04-25T07:24:31;97258.34;;;18.42;53.03
58373;BME280;44177;43.356;27.672;2023-04-25T07:26:56;97251.28;;;18.61;51.79
58373;BME280;44177;43.356;27.672;2023-04-25T07:29:23;97249.84;;;18.53;51.30
58373;BME280;44177;43.356;27.672;2023-04-25T07:31:48;97238.09;;;18.69;52.65
58373;BME280;44177;43.356;27.672;2023-04-25T07:34:14;97247.63;;;19.08;52.47
58373;BME280;44177;43.356;27.672;2023-04-25T07:36:40;97234.06;;;19.50;49.90
58373;BME280;44177;43.356;27.672;2023-04-25T07:39:06;97240.44;;;19.47;49.33
58373;BME280;44177;43.356;27.672;2023-04-25T07:41:32;97225.25;;;19.72;48.80
58373;BME280;44177;43.356;27.672;2023-04-25T07:43:58;97225.22;;;19.92;49.35
58373;BME280;44177;43.356;27.672;2023-04-25T07:46:23;97215.69;;;19.93;47.11
58373;BME280;44177;43.356;27.672;2023-04-25T07:48:49;97226.47;;;20.37;46.11
58373;BME280;44177;43.356;27.672;2023-04-25T07:51:14;97212.81;;;19.80;46.51
58373;BME280;44177;43.356;27.672;2023-04-25T07:53:40;97213.19;;;19.29;47.44
58373;BME280;44177;43.356;27.672;2023-04-25T07:56:06;97218.97;;;18.78;49.86
58373;BME280;44177;43.356;27.672;2023-04-25T07:58:31;97223.09;;;18.70;48.64
58373;BME280;44177;43.356;27.672;2023-04-25T08:00:57;97239.00;;;18.42;50.30
58373;BME280;44177;43.356;27.672;2023-04-25T08:03:22;97231.63;;;18.35;49.53
58373;BME280;44177;43.356;27.672;2023-04-25T08:05:48;97236.59;;;18.20;51.23
58373;BME280;44177;43.356;27.672;2023-04-25T08:08:13;97228.09;;;17.87;51.48
58373;BME280;44177;43.356;27.672;2023-04-25T08:10:39;97250.03;;;17.94;51.49
58373;BME280;44177;43.356;27.672;2023-04-25T08:13:04;97251.28;;;18.17;52.16
58373;BME280;44177;43.356;27.672;2023-04-25T08:15:30;97229.19;;;18.17;51.74
58373;BME280;44177;43.356;27.672;2023-04-25T08:17:55;97239.69;;;18.26;52.11
58373;BME280;44177;43.356;27.672;2023-04-25T08:20:21;97234.94;;;18.26;51.05
58373;BME280;44177;43.356;27.672;2023-04-25T08:22:46;97233.09;;;18.20;51.26
58373;BME280;44177;43.356;27.672;2023-04-25T08:25:14;97240.00;;;18.08;51.56
58373;BME280;44177;43.356;27.672;2023-04-25T08:27:39;97239.16;;;18.11;52.00
58373;BME280;44177;43.356;27.672;2023-04-25T08:30:05;97247.06;;;18.09;50.52
58373;BME280;44177;43.356;27.672;2023-04-25T08:32:31;97245.13;;;18.29;50.08
58373;BME280;44177;43.356;27.672;2023-04-25T08:34:56;97246.88;;;18.63;49.56
58373;BME280;44177;43.356;27.672;2023-04-25T08:37:22;97245.25;;;19.80;48.48
58373;BME280;44177;43.356;27.672;2023-04-25T08:39:47;97248.66;;;20.04;47.67
58373;BME280;44177;43.356;27.672;2023-04-25T08:42:19;97229.44;;;20.13;46.61
58373;BME280;44177;43.356;27.672;2023-04-25T08:44:45;97232.56;;;20.15;48.59
58373;BME280;44177;43.356;27.672;2023-04-25T08:47:13;97230.22;;;19.81;46.44
58373;BME280;44177;43.356;27.672;2023-04-25T08:49:39;97241.66;;;19.46;47.93
58373;BME280;44177;43.356;27.672;2023-04-25T08:52:11;97223.84;;;19.47;47.00
58373;BME280;44177;43.356;27.672;2023-04-25T08:54:42;97244.44;;;19.63;48.05
58373;BME280;44177;43.356;27.672;2023-04-25T08:57:09;97239.75;;;19.43;49.26
58373;BME280;44177;43.356;27.672;2023-04-25T08:59:35;97250.56;;;19.37;47.60
58373;BME280;44177;43.356;27.672;2023-04-25T09:02:03;97248.63;;;19.34;48.02
58373;BME280;44177;43.356;27.672;2023-04-25T09:04:31;97237.47;;;19.21;49.11
58373;BME280;44177;43.356;27.672;2023-04-25T09:06:56;97249.81;;;19.17;50.36
58373;BME280;44177;43.356;27.672;2023-04-25T09:09:23;97236.09;;;19.30;47.93
58373;BME280;44177;43.356;27.672;2023-04-25T09:11:49;97250.03;;;19.42;50.45
58373;BME280;44177;43.356;27.672;2023-04-25T09:14:15;97249.94;;;19.46;49.54
58373;BME280;44177;43.356;27.672;2023-04-25T09:19:29;97241.97;;;19.32;49.56
58373;BME280;44177;43.356;27.672;2023-04-25T09:21:57;97240.56;;;19.23;49.83
58373;BME280;44177;43.356;27.672;2023-04-25T09:24:40;97243.94;;;19.51;49.54
58373;BME280;44177;43.356;27.672;2023-04-25T09:27:09;97242.34;;;19.34;48.76
58373;BME280;44177;43.356;27.672;2023-04-25T09:29:40;97240.41;;;19.31;49.29
58373;BME280;44177;43.356;27.672;2023-04-25T09:32:18;97237.03;;;19.23;51.00
58373;BME280;44177;43.356;27.672;2023-04-25T09:34:49;97228.81;;;19.19;48.73
58373;BME280;44177;43.356;27.672;2023-04-25T09:37:26;97229.38;;;19.10;49.86
58373;BME280;44177;43.356;27.672;2023-04-25T09:39:59;97224.66;;;20.14;49.81
58373;BME280;44177;43.356;27.672;2023-04-25T09:42:28;97218.97;;;21.22;48.38
58373;BME280;44177;43.356;27.672;2023-04-25T09:44:56;97226.31;;;21.81;41.68
58373;BME280;44177;43.356;27.672;2023-04-25T09:47:24;97230.34;;;22.15;44.06
58373;BME280;44177;43.356;27.672;2023-04-25T09:49:50;97217.97;;;22.42;42.31
58373;BME280;44177;43.356;27.672;2023-04-25T09:52:21;97206.66;;;23.02;41.56
58373;BME280;44177;43.356;27.672;2023-04-25T09:54:48;97192.50;;;23.91;38.88
58373;BME280;44177;43.356;27.672;2023-04-25T09:59:46;97185.41;;;24.00;36.84
58373;BME280;44177;43.356;27.672;2023-04-25T10:02:17;97210.41;;;23.81;38.98
58373;BME280;44177;43.356;27.672;2023-04-25T10:04:51;97196.38;;;23.94;37.08
58373;BME280;44177;43.356;27.672;2023-04-25T10:07:18;97197.69;;;24.30;36.14
58373;BME280;44177;43.356;27.672;2023-04-25T10:09:48;97184.91;;;23.83;37.25
58373;BME280;44177;43.356;27.672;2023-04-25T10:12:16;97184.09;;;23.73;39.58
58373;BME280;44177;43.356;27.672;2023-04-25T10:14:42;97181.94;;;23.77;40.27
58373;BME280;44177;43.356;27.672;2023-04-25T10:17:10;97185.56;;;23.46;39.01
58373;BME280;44177;43.356;27.672;2023-04-25T10:19:36;97193.06;;;23.05;39.63
58373;BME280;44177;43.356;27.672;2023-04-25T10:24:39;97183.34;;;23.31;38.82
58373;BME280;44177;43.356;27.672;2023-04-25T10:27:05;97169.94;;;23.17;39.67
58373;BME280;44177;43.356;27.672;2023-04-25T10:29:31;97168.88;;;22.83;40.49
58373;BME280;44177;43.356;27.672;2023-04-25T10:31:57;97168.13;;;22.92;39.68
58373;BME280;44177;43.356;27.672;2023-04-25T10:34:39;97160.13;;;22.71;39.47
58373;BME280;44177;43.356;27.672;2023-04-25T10:37:09;97167.91;;;23.08;41.49
58373;BME280;44177;43.356;27.672;2023-04-25T10:39:35;97161.59;;;23.08;37.96
58373;BME280;44177;43.356;27.672;2023-04-25T10:42:02;97166.94;;;23.24;38.70
58373;BME280;44177;43.356;27.672;2023-04-25T10:44:31;97166.06;;;23.37;37.96
58373;BME280;44177;43.356;27.672;2023-04-25T10:46:58;97159.59;;;23.49;37.85
58373;BME280;44177;43.356;27.672;2023-04-25T10:49:37;97164.44;;;23.76;36.79
58373;BME280;44177;43.356;27.672;2023-04-25T11:02:31;97131.75;;;23.40;38.54
58373;BME280;44177;43.356;27.672;2023-04-25T11:04:56;97136.22;;;23.06;38.85
58373;BME280;44177;43.356;27.672;2023-04-25T11:07:38;97156.78;;;22.19;41.60
58373;BME280;44177;43.356;27.672;2023-04-25T11:10:04;97146.31;;;21.66;40.74
58373;BME280;44177;43.356;27.672;2023-04-25T11:12:31;97145.28;;;21.47;43.40
58373;BME280;44177;43.356;27.672;2023-04-25T11:15:04;97150.41;;;21.49;42.38
58373;BME280;44177;43.356;27.672;2023-04-25T11:17:30;97142.97;;;21.71;39.99
58373;BME280;44177;43.356;27.672;2023-04-25T11:19:56;97136.31;;;21.69;41.36
58373;BME280;44177;43.356;27.672;2023-04-25T11:22:22;97139.56;;;21.89;41.20
58373;BME280;44177;43.356;27.672;2023-04-25T11:24:47;97130.06;;;22.35;39.32
58373;BME280;44177;43.356;27.672;2023-04-25T11:27:13;97124.81;;;22.50;40.78
58373;BME280;44177;43.356;27.672;2023-04-25T11:29:39;97116.63;;;22.78;38.23
58373;BME280;44177;43.356;27.672;2023-04-25T11:32:04;97124.88;;;22.91;39.07
58373;BME280;44177;43.356;27.672;2023-04-25T11:34:31;97134.47;;;23.21;37.79
58373;BME280;44177;43.356;27.672;2023-04-25T11:36:58;97132.38;;;23.44;38.29
58373;BME280;44177;43.356;27.672;2023-04-25T11:39:25;97126.22;;;23.58;38.87
58373;BME280;44177;43.356;27.672;2023-04-25T11:41:51;97114.25;;;23.99;36.50
58373;BME280;44177;43.356;27.672;2023-04-25T11:44:18;97112.97;;;24.27;35.05
58373;BME280;44177;43.356;27.672;2023-04-25T11:46:44;97103.09;;;24.26;34.51
58373;BME280;44177;43.356;27.672;2023-04-25T11:49:10;97111.47;;;24.08;35.18
58373;BME280;44177;43.356;27.672;2023-04-25T11:51:40;97117.22;;;23.45;37.26
58373;BME280;44177;43.356;27.672;2023-04-25T11:54:06;97123.03;;;22.87;36.85
58373;BME280;44177;43.356;27.672;2023-04-25T11:56:31;97104.69;;;22.46;40.65
58373;BME280;44177;43.356;27.672;2023-04-25T11:59:03;97106.25;;;22.47;38.83
58373;BME280;44177;43.356;27.672;2023-04-25T12:01:32;97096.34;;;22.23;38.63
58373;BME280;44177;43.356;27.672;2023-04-25T12:04:09;97100.41;;;22.45;39.18
58373;BME280;44177;43.356;27.672;2023-04-25T12:06:37;97081.13;;;22.28;41.24
58373;BME280;44177;43.356;27.672;2023-04-25T12:09:07;97089.56;;;22.02;41.36
58373;BME280;44177;43.356;27.672;2023-04-25T12:11:41;97078.03;;;21.91;40.69
58373;BME280;44177;43.356;27.672;2023-04-25T12:14:07;97082.63;;;21.37;41.17
58373;BME280;44177;43.356;27.672;2023-04-25T12:16:54;97094.31;;;21.06;44.09
58373;BME280;44177;43.356;27.672;2023-04-25T12:19:21;97094.72;;;20.78;44.04
58373;BME280;44177;43.356;27.672;2023-04-25T12:21:47;97085.59;;;20.65;43.19
58373;BME280;44177;43.356;27.672;2023-04-25T12:24:16;97099.63;;;20.45;43.62
58373;BME280;44177;43.356;27.672;2023-04-25T12:27:02;97091.38;;;20.28;42.86
58373;BME280;44177;43.356;27.672;2023-04-25T12:29:30;97112.19;;;20.20;46.85
58373;BME280;44177;43.356;27.672;2023-04-25T12:31:56;97096.81;;;19.40;49.73
58373;BME280;44177;43.356;27.672;2023-04-25T12:34:23;97110.50;;;18.57;54.01
58373;BME280;44177;43.356;27.672;2023-04-25T12:36:49;97096.75;;;17.93;57.47
58373;BME280;44177;43.356;27.672;2023-04-25T12:39:20;97100.66;;;17.48;57.42
58373;BME280;44177;43.356;27.672;2023-04-25T12:41:47;97101.13;;;17.19;60.34
58373;BME280;44177;43.356;27.672;2023-04-25T12:44:13;97108.13;;;16.97;60.53
58373;BME280;44177;43.356;27.672;2023-04-25T12:46:39;97098.47;;;16.85;63.14
58373;BME280;44177;43.356;27.672;2023-04-25T12:49:05;97094.66;;;16.75;68.06
58373;BME280;44177;43.356;27.672;2023-04-25T12:51:32;97106.56;;;16.68;67.50
58373;BME280;44177;43.356;27.672;2023-04-25T12:53:58;97104.72;;;16.58;69.27
58373;BME280;44177;43.356;27.672;2023-04-25T12:56:25;97101.22;;;16.54;69.31
58373;BME280;44177;43.356;27.672;2023-04-25T12:58:51;97098.25;;;16.41;71.20
58373;BME280;44177;43.356;27.672;2023-04-25T13:01:17;97102.94;;;16.44;70.82
58373;BME280;44177;43.356;27.672;2023-04-25T13:03:42;97109.75;;;16.63;75.33
58373;BME280;44177;43.356;27.672;2023-04-25T13:06:08;97106.56;;;16.68;75.01